Time;durP1;ratioP1;P1;durP2;ratioP2;P2;SDS_P1;SDS_P2;PMS_P1;PMS_P2;Temp;Humidity;BMP_temperature;BMP_pressure;BME280_temperature;BME280_humidity;BME280_pressure;Samples;Min_cycle;Max_cycle;Signal;HPM_P1;HPM_P2
2023/06/01 00:01:21;;;;;;;6.78;3.13;;;;;;;;;;5037380;28;20262;-18
2023/06/01 00:03:48;;;;;;;4.85;2.95;;;;;;;;;;5028349;28;20737;-18
2023/06/01 00:06:16;;;;;;;4.60;3.22;;;;;;;;;;5036497;28;20241;-18
2023/06/01 00:08:44;;;;;;;4.20;2.90;;;;;;;;;;5027597;28;20261;-18
2023/06/01 00:11:11;;;;;;;8.45;3.92;;;;;;;;;;5027459;28;20292;-18
2023/06/01 00:13:39;;;;;;;8.52;4.10;;;;;;;;;;5032197;28;20313;-20
2023/06/01 00:16:06;;;;;;;5.55;3.28;;;;;;;;;;5042528;28;20234;-18
2023/06/01 00:18:35;;;;;;;4.43;3.42;;;;;;;;;;5037737;28;20297;-18
2023/06/01 00:21:03;;;;;;;6.38;3.55;;;;;;;;;;5030633;28;20235;-18
2023/06/01 00:23:30;;;;;;;4.28;3.13;;;;;;;;;;5034356;28;20720;-19
2023/06/01 00:25:58;;;;;;;6.45;3.40;;;;;;;;;;5040231;28;20226;-19
2023/06/01 00:28:25;;;;;;;4.90;3.25;;;;;;;;;;5032596;28;20239;-18
2023/06/01 00:30:53;;;;;;;4.75;3.17;;;;;;;;;;5031471;28;20227;-18
2023/06/01 00:33:21;;;;;;;6.65;3.25;;;;;;;;;;5034725;28;20665;-18
2023/06/01 00:35:50;;;;;;;4.35;3.30;;;;;;;;;;5033430;28;20253;-18
2023/06/01 00:38:18;;;;;;;6.10;3.08;;;;;;;;;;5042087;28;20326;-18
2023/06/01 00:40:45;;;;;;;5.97;3.20;;;;;;;;;;5036832;28;20356;-18
2023/06/01 00:43:12;;;;;;;4.50;3.05;;;;;;;;;;5049711;28;20625;-18
2023/06/01 00:45:40;;;;;;;6.90;3.30;;;;;;;;;;5050537;28;20320;-18
2023/06/01 00:48:07;;;;;;;5.20;3.22;;;;;;;;;;5051232;28;20230;-18
2023/06/01 00:50:35;;;;;;;4.95;3.88;;;;;;;;;;5050117;28;20226;-18
2023/06/01 00:53:04;;;;;;;5.75;3.10;;;;;;;;;;5050341;28;20633;-18
2023/06/01 00:55:31;;;;;;;4.45;3.08;;;;;;;;;;5050581;28;20733;-18
2023/06/01 00:57:59;;;;;;;5.85;3.42;;;;;;;;;;5049506;28;20763;-19
2023/06/01 01:00:27;;;;;;;5.60;3.58;;;;;;;;;;5050570;28;20237;-18
2023/06/01 01:02:56;;;;;;;4.28;3.13;;;;;;;;;;5050302;28;21093;-18
2023/06/01 01:05:26;;;;;;;5.50;3.15;;;;;;;;;;5049813;28;20230;-18
2023/06/01 01:07:56;;;;;;;6.85;3.30;;;;;;;;;;5050515;28;20234;-18
2023/06/01 01:10:29;;;;;;;4.50;2.85;;;;;;;;;;5051084;28;20238;-18
2023/06/01 01:12:59;;;;;;;3.72;3.10;;;;;;;;;;5049729;28;20289;-18
2023/06/01 01:15:27;;;;;;;3.55;2.75;;;;;;;;;;5050504;28;20683;-18
2023/06/01 01:17:56;;;;;;;5.43;3.15;;;;;;;;;;5039487;28;20297;-18
2023/06/01 01:20:25;;;;;;;7.05;3.28;;;;;;;;;;5030594;28;20698;-18
2023/06/01 01:23:04;;;;;;;5.93;3.40;;;;;;;;;;5044823;28;20258;-18
2023/06/01 01:25:49;;;;;;;4.32;3.20;;;;;;;;;;5049549;28;20237;-18
2023/06/01 01:28:26;;;;;;;5.95;3.20;;;;;;;;;;5046936;28;20269;-18
2023/06/01 01:30:53;;;;;;;4.82;3.25;;;;;;;;;;5050142;28;20226;-18
2023/06/01 01:33:21;;;;;;;6.05;3.67;;;;;;;;;;5049033;28;20265;-18
2023/06/01 01:35:49;;;;;;;5.35;3.33;;;;;;;;;;5036738;28;20235;-19
2023/06/01 01:38:16;;;;;;;4.00;2.92;;;;;;;;;;5049243;28;20236;-18
2023/06/01 01:40:44;;;;;;;4.55;3.35;;;;;;;;;;5049419;28;20245;-18
2023/06/01 01:43:12;;;;;;;4.95;3.20;;;;;;;;;;5049461;28;20321;-18
2023/06/01 01:45:41;;;;;;;4.57;3.22;;;;;;;;;;5049276;28;20325;-18
2023/06/01 01:48:10;;;;;;;4.72;3.28;;;;;;;;;;5049382;28;20725;-18
2023/06/01 01:50:53;;;;;;;4.75;2.75;;;;;;;;;;5049546;28;20244;-18
2023/06/01 01:53:20;;;;;;;4.50;3.00;;;;;;;;;;5048617;28;20312;-18
2023/06/01 01:55:48;;;;;;;4.63;3.00;;;;;;;;;;5049471;28;20230;-18
2023/06/01 01:58:15;;;;;;;4.72;3.38;;;;;;;;;;5048852;28;20238;-18
2023/06/01 02:00:44;;;;;;;6.03;3.30;;;;;;;;;;5048217;28;20241;-18
2023/06/01 02:03:13;;;;;;;4.78;3.10;;;;;;;;;;5048839;28;20299;-18
2023/06/01 02:05:41;;;;;;;5.22;2.80;;;;;;;;;;5049797;28;20776;-18
2023/06/01 02:08:08;;;;;;;4.65;2.88;;;;;;;;;;5048292;28;20739;-18
2023/06/01 02:10:37;;;;;;;4.43;2.85;;;;;;;;;;5049501;28;20308;-18
2023/06/01 02:13:04;;;;;;;4.10;2.75;;;;;;;;;;5048561;28;20222;-18
2023/06/01 02:15:32;;;;;;;4.70;3.20;;;;;;;;;;5049259;28;20234;-18
2023/06/01 02:18:02;;;;;;;5.90;3.40;;;;;;;;;;5049109;28;20222;-18
2023/06/01 02:20:29;;;;;;;4.13;3.20;;;;;;;;;;5049394;28;20238;-18
2023/06/01 02:22:57;;;;;;;6.28;3.10;;;;;;;;;;5048388;28;20234;-18
2023/06/01 02:25:24;;;;;;;3.92;2.97;;;;;;;;;;5049082;28;20236;-18
2023/06/01 02:27:52;;;;;;;6.75;3.33;;;;;;;;;;5035295;28;20234;-18
2023/06/01 02:30:19;;;;;;;5.45;3.50;;;;;;;;;;5049132;28;20705;-18
2023/06/01 02:32:48;;;;;;;5.32;2.97;;;;;;;;;;5048705;28;20254;-18
2023/06/01 02:35:17;;;;;;;3.97;2.95;;;;;;;;;;5048029;28;20234;-18
2023/06/01 02:37:45;;;;;;;4.90;3.38;;;;;;;;;;5048884;28;20238;-18
2023/06/01 02:40:13;;;;;;;3.00;2.55;;;;;;;;;;5048805;28;20248;-18
2023/06/01 02:42:40;;;;;;;4.15;3.17;;;;;;;;;;5046951;28;21189;-18
2023/06/01 02:45:08;;;;;;;6.20;3.22;;;;;;;;;;5048654;28;20714;-18
2023/06/01 02:47:35;;;;;;;4.32;3.10;;;;;;;;;;5048935;28;20238;-18
2023/06/01 02:50:04;;;;;;;3.83;3.10;;;;;;;;;;5047914;28;20293;-18
2023/06/01 02:52:35;;;;;;;5.43;3.20;;;;;;;;;;5048528;28;20342;-18
2023/06/01 02:55:02;;;;;;;6.35;3.10;;;;;;;;;;5035210;28;20716;-19
2023/06/01 02:57:30;;;;;;;3.95;3.08;;;;;;;;;;5048325;28;20284;-18
2023/06/01 02:59:57;;;;;;;4.43;3.38;;;;;;;;;;5048583;28;20260;-18
2023/06/01 03:02:26;;;;;;;4.75;2.75;;;;;;;;;;5048455;28;20280;-18
2023/06/01 03:04:53;;;;;;;5.57;3.47;;;;;;;;;;5048002;28;20328;-18
2023/06/01 03:07:21;;;;;;;5.18;3.22;;;;;;;;;;5048621;28;20701;-18
2023/06/01 03:09:49;;;;;;;5.30;3.33;;;;;;;;;;5048444;28;20288;-18
2023/06/01 03:12:17;;;;;;;5.95;3.40;;;;;;;;;;5047210;28;20277;-18
2023/06/01 03:14:45;;;;;;;4.47;3.05;;;;;;;;;;5048500;28;20365;-18
2023/06/01 03:17:12;;;;;;;4.93;3.25;;;;;;;;;;5047874;28;20738;-18
2023/06/01 03:19:40;;;;;;;6.32;3.53;;;;;;;;;;5048489;28;20238;-18
2023/06/01 03:22:07;;;;;;;6.32;3.53;;;;;;;;;;5048350;28;20230;-18
2023/06/01 03:24:36;;;;;;;6.57;3.30;;;;;;;;;;5047734;28;20225;-18
2023/06/01 03:27:06;;;;;;;4.35;3.20;;;;;;;;;;5034527;28;20239;-18
2023/06/01 03:29:33;;;;;;;6.07;3.67;;;;;;;;;;5034930;28;20238;-18
2023/06/01 03:32:01;;;;;;;4.22;3.35;;;;;;;;;;5047392;28;20234;-18
2023/06/01 03:34:29;;;;;;;5.15;2.92;;;;;;;;;;5047863;28;20335;-18
2023/06/01 03:36:57;;;;;;;4.63;3.25;;;;;;;;;;5048384;28;20241;-20
2023/06/01 03:39:24;;;;;;;4.40;3.38;;;;;;;;;;5047179;28;20238;-18
2023/06/01 03:41:52;;;;;;;9.45;3.53;;;;;;;;;;5048656;28;20688;-18
2023/06/01 03:44:21;;;;;;;5.50;3.58;;;;;;;;;;5048053;28;20304;-18
2023/06/01 03:46:48;;;;;;;6.55;3.28;;;;;;;;;;5047741;28;20322;-18
2023/06/01 03:49:16;;;;;;;4.72;3.10;;;;;;;;;;5047910;28;20308;-18
2023/06/01 03:51:43;;;;;;;6.07;3.25;;;;;;;;;;5048243;28;20797;-18
2023/06/01 03:54:11;;;;;;;6.50;3.30;;;;;;;;;;5046881;28;20238;-18
2023/06/01 03:56:38;;;;;;;6.63;3.72;;;;;;;;;;5048217;28;20308;-18
2023/06/01 03:59:07;;;;;;;4.90;3.63;;;;;;;;;;5047474;28;20320;-18
2023/06/01 04:01:36;;;;;;;4.93;3.40;;;;;;;;;;5047278;28;20260;-19
2023/06/01 04:04:08;;;;;;;5.20;3.17;;;;;;;;;;5047864;28;20258;-19
2023/06/01 04:06:36;;;;;;;5.55;3.55;;;;;;;;;;5047166;28;20230;-18
2023/06/01 04:09:06;;;;;;;6.05;3.65;;;;;;;;;;5047874;28;20241;-18
2023/06/01 04:11:34;;;;;;;4.43;3.17;;;;;;;;;;5047586;28;20226;-18
2023/06/01 04:14:01;;;;;;;6.53;3.67;;;;;;;;;;5046650;28;20304;-18
2023/06/01 04:16:29;;;;;;;4.30;2.90;;;;;;;;;;5047342;28;20388;-18
2023/06/01 04:18:58;;;;;;;6.25;3.53;;;;;;;;;;5047317;28;20230;-18
2023/06/01 04:21:25;;;;;;;4.18;3.13;;;;;;;;;;5046899;28;20257;-18
2023/06/01 04:23:53;;;;;;;6.03;3.60;;;;;;;;;;5047924;28;20300;-18
2023/06/01 04:26:20;;;;;;;6.45;3.88;;;;;;;;;;5040381;28;20342;-18
2023/06/01 04:28:48;;;;;;;5.82;3.85;;;;;;;;;;5041083;28;20234;-18
2023/06/01 04:31:18;;;;;;;6.55;3.42;;;;;;;;;;5047131;28;20254;-18
2023/06/01 04:33:52;;;;;;;5.57;3.65;;;;;;;;;;5047463;28;20321;-18
2023/06/01 04:36:22;;;;;;;4.75;3.45;;;;;;;;;;5047181;28;20249;-18
2023/06/01 04:38:52;;;;;;;5.22;3.40;;;;;;;;;;5047711;28;20804;-18
2023/06/01 04:41:21;;;;;;;4.00;3.08;;;;;;;;;;5047517;28;20329;-18
2023/06/01 04:43:52;;;;;;;5.30;3.28;;;;;;;;;;5046918;28;20237;-18
2023/06/01 04:46:20;;;;;;;4.40;2.95;;;;;;;;;;5047624;28;20222;-18
2023/06/01 04:48:48;;;;;;;4.07;3.00;;;;;;;;;;5047179;28;20235;-18
2023/06/01 04:51:19;;;;;;;5.90;3.28;;;;;;;;;;5046905;28;20414;-19
2023/06/01 04:53:49;;;;;;;6.15;3.53;;;;;;;;;;5046949;28;20238;-18
2023/06/01 04:56:17;;;;;;;5.80;3.58;;;;;;;;;;5046459;28;20230;-18
2023/06/01 04:58:46;;;;;;;4.72;3.30;;;;;;;;;;5047495;28;20257;-18
2023/06/01 05:01:15;;;;;;;5.93;3.42;;;;;;;;;;5046892;28;20324;-18
2023/06/01 05:03:43;;;;;;;10.57;3.42;;;;;;;;;;5045875;28;20226;-19
2023/06/01 05:06:11;;;;;;;6.45;3.55;;;;;;;;;;5039584;28;20226;-19
2023/06/01 05:08:39;;;;;;;5.10;3.97;;;;;;;;;;5040775;28;20267;-19
2023/06/01 05:11:08;;;;;;;5.50;3.55;;;;;;;;;;5032792;28;20234;-19
2023/06/01 05:13:36;;;;;;;5.18;3.17;;;;;;;;;;5032331;28;20334;-19
2023/06/01 05:16:03;;;;;;;4.05;3.20;;;;;;;;;;5030820;28;20235;-19
2023/06/01 05:18:31;;;;;;;4.85;3.28;;;;;;;;;;5032056;28;20317;-19
2023/06/01 05:20:59;;;;;;;8.57;3.75;;;;;;;;;;5030538;28;20247;-19
2023/06/01 05:23:27;;;;;;;5.53;3.20;;;;;;;;;;5032432;28;20231;-19
2023/06/01 05:26:01;;;;;;;6.78;3.72;;;;;;;;;;5029537;28;20277;-19
2023/06/01 05:28:31;;;;;;;5.78;3.83;;;;;;;;;;5042059;28;20701;-19
2023/06/01 05:31:02;;;;;;;5.57;3.22;;;;;;;;;;5049121;28;21008;-19
2023/06/01 05:33:30;;;;;;;4.90;3.35;;;;;;;;;;5050519;28;20234;-19
2023/06/01 05:35:57;;;;;;;6.78;3.65;;;;;;;;;;5036098;28;20296;-19
2023/06/01 05:38:25;;;;;;;7.38;3.90;;;;;;;;;;5049240;28;20238;-19
2023/06/01 05:40:52;;;;;;;6.13;3.33;;;;;;;;;;5050061;28;20242;-20
2023/06/01 05:43:20;;;;;;;7.05;3.88;;;;;;;;;;5049895;28;20667;-19
2023/06/01 05:45:49;;;;;;;6.57;3.88;;;;;;;;;;5049517;28;20710;-19
2023/06/01 05:48:16;;;;;;;8.30;4.05;;;;;;;;;;5049663;28;20237;-19
2023/06/01 05:50:44;;;;;;;7.75;3.50;;;;;;;;;;5049755;28;20332;-19
2023/06/01 05:53:11;;;;;;;5.70;3.50;;;;;;;;;;5048963;28;20233;-19
2023/06/01 05:55:39;;;;;;;7.45;3.63;;;;;;;;;;5050025;28;20234;-19
2023/06/01 05:58:06;;;;;;;5.20;3.08;;;;;;;;;;5049527;28;20254;-19
2023/06/01 06:00:34;;;;;;;4.78;3.60;;;;;;;;;;5049039;28;20646;-19
2023/06/01 06:03:04;;;;;;;4.95;3.30;;;;;;;;;;5049354;28;20317;-20
2023/06/01 06:05:32;;;;;;;7.43;3.58;;;;;;;;;;5049912;28;20250;-19
2023/06/01 06:08:00;;;;;;;4.97;3.17;;;;;;;;;;5048349;28;20238;-19
2023/06/01 06:10:28;;;;;;;4.72;3.50;;;;;;;;;;5049684;28;20233;-19
2023/06/01 06:12:55;;;;;;;6.82;3.60;;;;;;;;;;5048005;28;20265;-19
2023/06/01 06:15:23;;;;;;;4.68;3.55;;;;;;;;;;5049855;28;20238;-19
2023/06/01 06:17:50;;;;;;;4.68;3.22;;;;;;;;;;5049227;28;20717;-19
2023/06/01 06:20:21;;;;;;;6.15;3.65;;;;;;;;;;5034008;28;21228;-19
2023/06/01 06:22:50;;;;;;;5.70;3.70;;;;;;;;;;5049091;28;20713;-19
2023/06/01 06:25:17;;;;;;;10.05;3.40;;;;;;;;;;5048930;28;20230;-19
2023/06/01 06:27:45;;;;;;;6.85;3.50;;;;;;;;;;5034781;28;20726;-19
2023/06/01 06:30:13;;;;;;;5.93;3.72;;;;;;;;;;5048960;28;20302;-19
2023/06/01 06:32:40;;;;;;;4.95;3.47;;;;;;;;;;5047185;28;20232;-19
2023/06/01 06:35:08;;;;;;;6.45;3.60;;;;;;;;;;5048404;28;20326;-19
2023/06/01 06:37:37;;;;;;;5.00;3.40;;;;;;;;;;5049704;28;20650;-19
2023/06/01 06:40:06;;;;;;;5.82;3.53;;;;;;;;;;5048344;28;20281;-19
2023/06/01 06:42:34;;;;;;;6.47;3.80;;;;;;;;;;5040850;28;20778;-19
2023/06/01 06:45:02;;;;;;;4.65;3.50;;;;;;;;;;5040502;28;20231;-19
2023/06/01 06:47:29;;;;;;;6.25;3.67;;;;;;;;;;5040477;28;20732;-18
2023/06/01 06:49:57;;;;;;;5.00;3.50;;;;;;;;;;5030096;28;20231;-18
2023/06/01 06:52:24;;;;;;;5.78;3.58;;;;;;;;;;5041427;28;20719;-19
2023/06/01 06:54:53;;;;;;;4.70;3.55;;;;;;;;;;5038564;28;20238;-18
2023/06/01 06:57:20;;;;;;;4.75;3.53;;;;;;;;;;5028321;28;20227;-19
2023/06/01 06:59:48;;;;;;;8.88;3.70;;;;;;;;;;5029063;28;20285;-18
2023/06/01 07:02:16;;;;;;;8.23;3.70;;;;;;;;;;5031680;28;20568;-19
2023/06/01 07:04:43;;;;;;;7.28;3.67;;;;;;;;;;5034367;28;20307;-19
2023/06/01 07:07:10;;;;;;;4.50;3.28;;;;;;;;;;5028295;28;20238;-18
2023/06/01 07:09:38;;;;;;;5.28;3.38;;;;;;;;;;5039241;28;20324;-18
2023/06/01 07:12:08;;;;;;;7.30;3.92;;;;;;;;;;5033598;28;20235;-19
2023/06/01 07:14:36;;;;;;;6.78;3.40;;;;;;;;;;5028816;28;20309;-18
2023/06/01 07:17:03;;;;;;;5.55;3.13;;;;;;;;;;5027613;28;20399;-19
2023/06/01 07:19:32;;;;;;;5.95;3.78;;;;;;;;;;5028778;28;20235;-19
2023/06/01 07:22:00;;;;;;;4.43;3.47;;;;;;;;;;5029723;28;20310;-19
2023/06/01 07:24:28;;;;;;;6.53;3.67;;;;;;;;;;5027593;28;20617;-19
2023/06/01 07:26:57;;;;;;;8.35;3.63;;;;;;;;;;5028490;28;20289;-18
2023/06/01 07:29:26;;;;;;;5.35;3.50;;;;;;;;;;5041124;28;20230;-19
2023/06/01 07:31:53;;;;;;;5.78;3.35;;;;;;;;;;5038281;28;20230;-19
2023/06/01 07:34:21;;;;;;;4.38;3.45;;;;;;;;;;5042616;28;20277;-19
2023/06/01 07:36:49;;;;;;;4.72;3.10;;;;;;;;;;5046982;28;20234;-19
2023/06/01 07:39:17;;;;;;;5.60;3.63;;;;;;;;;;5030848;28;20227;-19
2023/06/01 07:41:45;;;;;;;4.53;3.25;;;;;;;;;;5034119;28;20332;-19
2023/06/01 07:44:13;;;;;;;4.53;3.30;;;;;;;;;;5041388;28;20674;-19
2023/06/01 07:46:42;;;;;;;5.32;3.78;;;;;;;;;;5034767;28;20237;-19
2023/06/01 07:49:13;;;;;;;4.50;3.60;;;;;;;;;;5044716;28;20234;-18
2023/06/01 07:51:41;;;;;;;4.53;3.38;;;;;;;;;;5045595;28;20230;-19
2023/06/01 07:54:08;;;;;;;5.38;3.42;;;;;;;;;;5031347;28;20257;-19
2023/06/01 07:56:36;;;;;;;5.00;3.00;;;;;;;;;;5030135;28;20234;-19
2023/06/01 07:59:03;;;;;;;3.80;3.40;;;;;;;;;;5028346;28;20230;-19
2023/06/01 08:01:31;;;;;;;5.65;3.13;;;;;;;;;;5032845;28;20288;-19
2023/06/01 08:04:01;;;;;;;5.10;3.53;;;;;;;;;;5037172;28;20696;-19
2023/06/01 08:06:35;;;;;;;3.97;3.10;;;;;;;;;;5028825;28;20238;-19
2023/06/01 08:09:02;;;;;;;6.20;3.50;;;;;;;;;;5027594;28;20235;-18
2023/06/01 08:11:30;;;;;;;3.90;2.75;;;;;;;;;;5029940;28;20231;-19
2023/06/01 08:13:59;;;;;;;4.43;3.00;;;;;;;;;;5030662;28;20248;-19
2023/06/01 08:16:27;;;;;;;6.25;3.22;;;;;;;;;;5033684;28;20230;-18
2023/06/01 08:18:56;;;;;;;6.20;3.10;;;;;;;;;;5043322;28;20258;-20
2023/06/01 08:21:25;;;;;;;6.05;3.50;;;;;;;;;;5047353;28;20246;-19
2023/06/01 08:23:54;;;;;;;4.18;3.10;;;;;;;;;;5041237;28;21157;-18
2023/06/01 08:26:22;;;;;;;6.00;3.33;;;;;;;;;;5031003;28;20238;-19
2023/06/01 08:28:51;;;;;;;4.22;3.10;;;;;;;;;;5041338;28;20265;-19
2023/06/01 08:31:19;;;;;;;4.72;3.17;;;;;;;;;;5047607;28;20227;-19
2023/06/01 08:33:47;;;;;;;4.75;3.60;;;;;;;;;;5047185;28;20337;-18
2023/06/01 08:36:14;;;;;;;3.85;2.72;;;;;;;;;;5042239;28;20242;-19
2023/06/01 08:38:43;;;;;;;7.75;3.42;;;;;;;;;;5037126;28;20328;-19
2023/06/01 08:41:12;;;;;;;6.82;3.13;;;;;;;;;;5036193;28;20612;-19
2023/06/01 08:43:39;;;;;;;4.75;3.20;;;;;;;;;;5045126;28;20321;-19
2023/06/01 08:46:07;;;;;;;5.00;3.00;;;;;;;;;;5050732;28;20611;-19
2023/06/01 08:48:35;;;;;;;5.00;3.30;;;;;;;;;;5040149;28;20357;-19
2023/06/01 08:51:02;;;;;;;5.20;3.42;;;;;;;;;;5035058;28;20317;-19
2023/06/01 08:53:30;;;;;;;5.90;3.70;;;;;;;;;;5040376;28;20698;-19
2023/06/01 08:55:59;;;;;;;7.97;3.80;;;;;;;;;;5041904;28;20349;-19
2023/06/01 08:58:27;;;;;;;7.10;4.03;;;;;;;;;;5051125;28;20317;-19
2023/06/01 09:00:54;;;;;;;10.30;4.38;;;;;;;;;;5047193;28;20232;-19
2023/06/01 09:03:22;;;;;;;6.22;3.75;;;;;;;;;;5036557;28;20234;-19
2023/06/01 09:05:49;;;;;;;9.27;4.00;;;;;;;;;;5037679;28;20309;-18
2023/06/01 09:08:17;;;;;;;8.93;4.40;;;;;;;;;;5032960;28;20640;-19
2023/06/01 09:10:44;;;;;;;8.52;4.10;;;;;;;;;;5038068;28;21340;-19
2023/06/01 09:13:14;;;;;;;11.50;4.68;;;;;;;;;;5039094;28;20238;-18
2023/06/01 09:15:50;;;;;;;10.82;4.60;;;;;;;;;;5036839;28;20260;-19
2023/06/01 09:18:18;;;;;;;11.25;4.72;;;;;;;;;;5040768;28;20230;-19
2023/06/01 09:20:46;;;;;;;12.60;5.00;;;;;;;;;;5040651;28;20297;-18
2023/06/01 09:23:15;;;;;;;7.03;4.03;;;;;;;;;;5046901;28;20329;-19
2023/06/01 09:25:42;;;;;;;7.80;4.40;;;;;;;;;;5041768;28;21193;-18
2023/06/01 09:28:10;;;;;;;16.85;4.97;;;;;;;;;;5049130;28;20733;-19
2023/06/01 09:30:42;;;;;;;19.77;6.97;;;;;;;;;;5049612;28;20388;-18
2023/06/01 09:33:12;;;;;;;15.07;5.40;;;;;;;;;;5049138;28;20384;-19
2023/06/01 09:35:41;;;;;;;14.48;5.00;;;;;;;;;;5049932;28;20724;-18
2023/06/01 09:38:08;;;;;;;11.98;4.95;;;;;;;;;;5048963;28;20253;-18
2023/06/01 09:40:37;;;;;;;15.05;5.60;;;;;;;;;;5048985;28;20237;-18
2023/06/01 09:43:07;;;;;;;12.50;4.75;;;;;;;;;;5045630;28;20247;-19
2023/06/01 09:45:37;;;;;;;9.18;5.00;;;;;;;;;;5048303;28;20260;-19
2023/06/01 09:48:18;;;;;;;12.35;5.10;;;;;;;;;;5044899;28;20679;-19
2023/06/01 09:50:45;;;;;;;10.98;4.60;;;;;;;;;;5039373;28;20273;-19
2023/06/01 09:53:14;;;;;;;10.50;4.38;;;;;;;;;;5036800;28;20233;-19
2023/06/01 09:55:57;;;;;;;10.70;4.22;;;;;;;;;;5037320;28;20229;-19
2023/06/01 09:58:25;;;;;;;12.10;4.30;;;;;;;;;;5029189;28;20234;-19
2023/06/01 10:00:52;;;;;;;8.25;3.80;;;;;;;;;;5030151;28;20290;-18
2023/06/01 10:03:22;;;;;;;8.30;4.30;;;;;;;;;;5039698;28;20332;-19
2023/06/01 10:05:49;;;;;;;7.38;4.25;;;;;;;;;;5034227;28;20708;-19
2023/06/01 10:08:17;;;;;;;9.32;4.82;;;;;;;;;;5040326;28;20277;-19
2023/06/01 10:10:45;;;;;;;5.72;4.20;;;;;;;;;;5040446;28;20237;-19
2023/06/01 10:13:13;;;;;;;11.77;4.85;;;;;;;;;;5033641;28;20231;-19
2023/06/01 10:15:40;;;;;;;9.23;4.28;;;;;;;;;;5040900;28;20243;-19
2023/06/01 10:18:08;;;;;;;10.13;4.15;;;;;;;;;;5029396;28;20226;-19
2023/06/01 10:20:37;;;;;;;9.75;4.43;;;;;;;;;;5028506;28;20289;-19
2023/06/01 10:23:05;;;;;;;9.73;4.53;;;;;;;;;;5035725;28;20243;-19
2023/06/01 10:25:42;;;;;;;10.75;4.50;;;;;;;;;;5036422;28;20832;-18
2023/06/01 10:28:10;;;;;;;11.63;5.22;;;;;;;;;;5037438;28;20241;-19
2023/06/01 10:30:38;;;;;;;14.10;5.32;;;;;;;;;;5049218;28;20226;-19
2023/06/01 10:33:06;;;;;;;11.15;4.60;;;;;;;;;;5048893;28;20280;-19
2023/06/01 10:35:48;;;;;;;15.27;4.68;;;;;;;;;;5047539;28;20234;-20
2023/06/01 10:38:26;;;;;;;13.10;4.68;;;;;;;;;;5047311;28;20233;-19
2023/06/01 10:40:54;;;;;;;13.00;4.53;;;;;;;;;;5048347;28;20352;-19
2023/06/01 10:43:42;;;;;;;11.18;4.95;;;;;;;;;;5048110;28;20246;-18
2023/06/01 10:46:31;;;;;;;8.43;4.63;;;;;;;;;;5034016;28;20313;-19
2023/06/01 10:48:58;;;;;;;14.73;4.72;;;;;;;;;;5034412;28;20262;-19
2023/06/01 10:51:27;;;;;;;11.20;4.03;;;;;;;;;;5041475;28;20661;-18
2023/06/01 10:53:56;;;;;;;11.32;4.28;;;;;;;;;;5032454;28;20578;-19
2023/06/01 10:56:24;;;;;;;7.07;3.92;;;;;;;;;;5035032;28;20238;-19
2023/06/01 10:59:10;;;;;;;10.85;4.07;;;;;;;;;;5042416;28;20284;-19
2023/06/01 11:01:45;;;;;;;6.88;3.55;;;;;;;;;;5043537;28;20229;-19
2023/06/01 11:04:13;;;;;;;10.25;3.95;;;;;;;;;;5044438;28;20277;-19
2023/06/01 11:06:42;;;;;;;11.98;4.13;;;;;;;;;;5029665;28;20230;-20
2023/06/01 11:09:15;;;;;;;11.60;4.18;;;;;;;;;;5036616;28;20400;-20
2023/06/01 11:12:01;;;;;;;6.60;3.70;;;;;;;;;;5033377;28;20321;-20
2023/06/01 11:14:30;;;;;;;8.50;3.97;;;;;;;;;;5044073;28;20322;-20
2023/06/01 11:17:16;;;;;;;6.43;4.07;;;;;;;;;;5032073;28;20333;-18
2023/06/01 11:19:44;;;;;;;11.55;4.65;;;;;;;;;;5046164;28;20308;-18
2023/06/01 11:22:12;;;;;;;11.15;4.00;;;;;;;;;;5030879;28;20237;-18
2023/06/01 11:24:41;;;;;;;7.95;4.00;;;;;;;;;;5047255;28;20244;-18
2023/06/01 11:27:09;;;;;;;7.30;3.97;;;;;;;;;;5029087;28;20289;-18
2023/06/01 11:29:37;;;;;;;8.35;4.32;;;;;;;;;;5047707;28;20234;-18
2023/06/01 11:32:06;;;;;;;9.60;3.78;;;;;;;;;;5047360;28;20241;-19
2023/06/01 11:34:37;;;;;;;7.60;4.15;;;;;;;;;;5047782;28;20637;-18
2023/06/01 11:37:05;;;;;;;8.23;3.95;;;;;;;;;;5046683;28;20245;-19
2023/06/01 11:39:33;;;;;;;8.88;4.13;;;;;;;;;;5048367;28;20234;-19
2023/06/01 11:42:08;;;;;;;11.43;4.70;;;;;;;;;;5045945;28;20241;-18
2023/06/01 11:44:36;;;;;;;14.30;4.60;;;;;;;;;;5046175;28;21270;-19
2023/06/01 11:47:05;;;;;;;7.47;4.25;;;;;;;;;;5046909;28;20230;-19
2023/06/01 11:49:41;;;;;;;10.02;5.03;;;;;;;;;;5036171;28;20322;-19
2023/06/01 11:52:09;;;;;;;6.90;4.10;;;;;;;;;;5033206;28;20229;-18
2023/06/01 11:54:37;;;;;;;8.68;4.68;;;;;;;;;;5038132;28;20230;-19
2023/06/01 11:57:07;;;;;;;10.77;4.43;;;;;;;;;;5033271;28;20318;-19
2023/06/01 11:59:38;;;;;;;10.90;4.57;;;;;;;;;;5040925;28;20237;-19
2023/06/01 12:02:16;;;;;;;6.00;4.20;;;;;;;;;;5045912;28;21122;-19
2023/06/01 12:04:43;;;;;;;8.40;4.30;;;;;;;;;;5044031;28;20238;-18
2023/06/01 12:07:11;;;;;;;8.02;4.70;;;;;;;;;;5046474;28;20226;-19
2023/06/01 12:09:38;;;;;;;10.93;4.40;;;;;;;;;;5043751;28;20307;-18
2023/06/01 12:12:08;;;;;;;7.25;4.35;;;;;;;;;;5027592;28;20406;-18
2023/06/01 12:14:36;;;;;;;10.73;4.30;;;;;;;;;;5033436;28;20231;-18
2023/06/01 12:17:05;;;;;;;10.35;4.20;;;;;;;;;;5037440;28;20663;-19
2023/06/01 12:19:33;;;;;;;10.13;4.13;;;;;;;;;;5038834;28;20321;-20
2023/06/01 12:22:00;;;;;;;12.27;4.22;;;;;;;;;;5043866;28;20238;-20
2023/06/01 12:24:29;;;;;;;9.57;4.25;;;;;;;;;;5039002;28;20248;-18
2023/06/01 12:26:57;;;;;;;11.13;4.25;;;;;;;;;;5044691;28;20234;-19
2023/06/01 12:29:38;;;;;;;5.63;4.45;;;;;;;;;;5050687;28;20238;-19
2023/06/01 12:32:07;;;;;;;9.50;4.05;;;;;;;;;;5049538;28;20237;-18
2023/06/01 12:34:35;;;;;;;6.65;4.65;;;;;;;;;;5048933;28;20226;-19
2023/06/01 12:37:15;;;;;;;10.45;4.07;;;;;;;;;;5049697;28;20360;-18
2023/06/01 12:39:43;;;;;;;5.32;3.78;;;;;;;;;;5049821;28;20233;-18
2023/06/01 12:42:11;;;;;;;9.50;3.90;;;;;;;;;;5048778;28;21063;-19
2023/06/01 12:44:41;;;;;;;8.43;3.97;;;;;;;;;;5050506;28;20245;-18
2023/06/01 12:47:09;;;;;;;6.13;3.25;;;;;;;;;;5050660;28;20230;-19
2023/06/01 12:49:37;;;;;;;7.40;3.75;;;;;;;;;;5050661;28;20261;-19
2023/06/01 12:52:05;;;;;;;3.85;3.20;;;;;;;;;;5051401;28;20673;-19
2023/06/01 12:54:33;;;;;;;9.15;3.95;;;;;;;;;;5048085;28;20226;-18
2023/06/01 12:57:01;;;;;;;8.65;4.05;;;;;;;;;;5038929;28;20226;-18
2023/06/01 12:59:29;;;;;;;5.03;3.80;;;;;;;;;;5050684;28;20709;-18
2023/06/01 13:01:58;;;;;;;5.15;3.45;;;;;;;;;;5049810;28;20253;-18
2023/06/01 13:04:25;;;;;;;6.35;3.50;;;;;;;;;;5050361;28;20316;-19
2023/06/01 13:06:53;;;;;;;4.75;3.53;;;;;;;;;;5050772;28;20237;-19
2023/06/01 13:09:21;;;;;;;6.97;3.85;;;;;;;;;;5049655;28;21201;-18
2023/06/01 13:11:50;;;;;;;4.93;3.60;;;;;;;;;;5050684;28;20237;-18
2023/06/01 13:14:18;;;;;;;6.78;3.42;;;;;;;;;;5050402;28;20288;-19
2023/06/01 13:16:45;;;;;;;7.05;3.75;;;;;;;;;;5050017;28;20238;-18
2023/06/01 13:19:14;;;;;;;6.40;3.50;;;;;;;;;;5050457;28;20280;-19
2023/06/01 13:21:41;;;;;;;4.40;3.17;;;;;;;;;;5050539;28;20236;-18
2023/06/01 13:24:10;;;;;;;3.85;3.00;;;;;;;;;;5049013;28;20277;-18
2023/06/01 13:26:38;;;;;;;5.07;3.03;;;;;;;;;;5040424;28;20317;-18
2023/06/01 13:29:06;;;;;;;7.47;2.97;;;;;;;;;;5045217;28;20313;-18
2023/06/01 13:31:35;;;;;;;3.42;2.78;;;;;;;;;;5050376;28;20238;-18
2023/06/01 13:34:03;;;;;;;6.10;3.13;;;;;;;;;;5049695;28;20265;-19
2023/06/01 13:36:32;;;;;;;4.38;3.05;;;;;;;;;;5050260;28;20344;-18
2023/06/01 13:39:01;;;;;;;3.80;2.80;;;;;;;;;;5050187;28;20234;-18
2023/06/01 13:41:28;;;;;;;5.03;2.85;;;;;;;;;;5049797;28;20226;-19
2023/06/01 13:43:57;;;;;;;4.38;2.83;;;;;;;;;;5049102;28;21194;-18
2023/06/01 13:46:25;;;;;;;4.80;3.20;;;;;;;;;;5050400;28;20312;-19
2023/06/01 13:48:52;;;;;;;2.95;2.65;;;;;;;;;;5050159;28;20317;-19
2023/06/01 13:51:20;;;;;;;3.95;3.00;;;;;;;;;;5049136;28;20284;-19
2023/06/01 13:53:49;;;;;;;3.10;2.80;;;;;;;;;;5049413;28;20234;-19
2023/06/01 13:56:17;;;;;;;3.30;2.80;;;;;;;;;;5049444;28;20748;-19
2023/06/01 13:58:44;;;;;;;3.58;2.92;;;;;;;;;;5049645;28;20799;-18
2023/06/01 14:01:12;;;;;;;4.43;3.08;;;;;;;;;;5049459;28;20253;-19
2023/06/01 14:03:39;;;;;;;4.10;3.20;;;;;;;;;;5049858;28;20233;-18
2023/06/01 14:06:07;;;;;;;3.53;3.13;;;;;;;;;;5048403;28;21125;-19
2023/06/01 14:08:35;;;;;;;5.70;3.38;;;;;;;;;;5049586;28;20313;-18
2023/06/01 14:11:04;;;;;;;4.30;3.20;;;;;;;;;;5049392;28;20329;-19
2023/06/01 14:13:31;;;;;;;11.98;3.70;;;;;;;;;;5048636;28;20230;-19
2023/06/01 14:15:59;;;;;;;8.48;3.20;;;;;;;;;;5049183;28;20226;-18
2023/06/01 14:18:26;;;;;;;11.10;3.90;;;;;;;;;;5049129;28;20234;-18
2023/06/01 14:20:54;;;;;;;18.95;3.60;;;;;;;;;;5049392;28;20231;-18
2023/06/01 14:23:21;;;;;;;24.40;4.50;;;;;;;;;;5049127;28;20334;-18
2023/06/01 14:25:49;;;;;;;14.77;3.92;;;;;;;;;;5045664;28;20717;-19
2023/06/01 14:28:18;;;;;;;15.60;4.18;;;;;;;;;;5039084;28;20254;-19
2023/06/01 14:30:46;;;;;;;10.68;3.72;;;;;;;;;;5048860;28;20257;-19
2023/06/01 14:33:14;;;;;;;12.32;3.20;;;;;;;;;;5048291;28;20234;-18
2023/06/01 14:35:42;;;;;;;9.20;3.97;;;;;;;;;;5049250;28;20655;-19
2023/06/01 14:38:09;;;;;;;14.00;4.28;;;;;;;;;;5049140;28;20248;-19
2023/06/01 14:40:36;;;;;;;8.10;3.78;;;;;;;;;;5049173;28;20234;-19
2023/06/01 14:43:04;;;;;;;11.00;3.88;;;;;;;;;;5047908;28;20401;-19
2023/06/01 14:45:33;;;;;;;13.55;3.65;;;;;;;;;;5049164;28;20242;-18
2023/06/01 14:48:00;;;;;;;13.68;3.85;;;;;;;;;;5047965;28;20241;-18
2023/06/01 14:50:28;;;;;;;10.32;3.95;;;;;;;;;;5048859;28;20234;-19